Time;durP1;ratioP1;P1;durP2;ratioP2;P2;SDS_P1;SDS_P2;PMS_P1;PMS_P2;Temp;Humidity;BMP_temperature;BMP_pressure;BME280_temperature;BME280_humidity;BME280_pressure;Samples;Min_cycle;Max_cycle;Signal;HPM_P1;HPM_P2
2022/07/07 00:00:58;;;;;;;1.95;1.25;;;23.70;99.90;;;;;;4133294;28;20213;-75
2022/07/07 00:03:01;;;;;;;1.98;1.25;;;23.70;99.90;;;;;;4129810;28;20272;-75
2022/07/07 00:05:05;;;;;;;1.30;1.20;;;23.70;99.90;;;;;;4130063;28;20619;-75
2022/07/07 00:07:08;;;;;;;1.63;1.10;;;23.70;99.90;;;;;;4132720;28;20213;-74
2022/07/07 00:09:11;;;;;;;2.33;1.23;;;23.70;99.90;;;;;;4131927;28;20280;-75
2022/07/07 00:11:14;;;;;;;2.33;1.40;;;23.70;99.90;;;;;;4122833;28;20265;-75
2022/07/07 00:13:17;;;;;;;1.60;1.50;;;23.60;99.90;;;;;;4128985;28;20214;-75
2022/07/07 00:15:20;;;;;;;1.58;1.23;;;23.70;99.90;;;;;;4133827;28;20221;-75
2022/07/07 00:17:22;;;;;;;2.50;1.48;;;23.60;99.90;;;;;;4142660;28;20240;-75
2022/07/07 00:19:24;;;;;;;1.48;1.30;;;23.60;99.90;;;;;;4151108;28;20664;-75
2022/07/07 00:21:28;;;;;;;2.03;1.23;;;23.60;99.90;;;;;;4147252;28;20282;-75
2022/07/07 00:23:31;;;;;;;1.88;1.25;;;23.60;99.90;;;;;;4150323;28;20660;-75
2022/07/07 00:25:34;;;;;;;3.55;1.52;;;23.60;99.90;;;;;;4146859;28;20239;-75
2022/07/07 00:27:36;;;;;;;1.13;1.00;;;23.60;99.90;;;;;;4150011;28;20660;-75
2022/07/07 00:29:39;;;;;;;1.67;1.27;;;23.60;99.90;;;;;;4148425;28;20270;-74
2022/07/07 00:31:41;;;;;;;2.75;1.15;;;23.60;99.90;;;;;;4149944;28;20282;-75
2022/07/07 00:33:43;;;;;;;1.95;1.20;;;23.60;99.90;;;;;;4145549;28;20217;-75
2022/07/07 00:35:46;;;;;;;1.55;1.27;;;23.60;99.90;;;;;;4146300;28;20267;-75
2022/07/07 00:37:49;;;;;;;1.40;1.30;;;23.60;99.90;;;;;;4145893;28;20216;-75
2022/07/07 00:39:52;;;;;;;2.08;1.30;;;23.60;99.90;;;;;;4141720;28;20675;-75
2022/07/07 00:41:54;;;;;;;1.55;1.30;;;23.60;99.90;;;;;;4151962;28;20205;-75
2022/07/07 00:43:56;;;;;;;1.88;1.20;;;23.60;99.90;;;;;;4148045;28;20240;-74
2022/07/07 00:45:59;;;;;;;2.28;1.35;;;23.60;99.90;;;;;;4145622;28;20632;-74
2022/07/07 00:48:02;;;;;;;1.83;1.20;;;23.60;99.90;;;;;;4147905;28;20607;-74
2022/07/07 00:50:05;;;;;;;1.42;1.23;;;23.60;99.90;;;;;;4146936;28;20592;-75
2022/07/07 00:52:08;;;;;;;2.50;1.30;;;23.60;99.90;;;;;;4147290;28;20213;-75
2022/07/07 00:54:12;;;;;;;1.40;1.13;;;23.60;99.90;;;;;;4150491;28;20270;-75
2022/07/07 00:56:14;;;;;;;1.48;1.33;;;23.60;99.90;;;;;;4146306;28;20213;-75
2022/07/07 00:58:17;;;;;;;1.45;1.20;;;23.60;99.90;;;;;;4148532;28;20605;-74
2022/07/07 01:00:20;;;;;;;2.60;1.23;;;23.50;99.90;;;;;;4146521;28;20993;-74
2022/07/07 01:02:22;;;;;;;2.10;1.30;;;23.60;99.90;;;;;;4148031;28;20247;-75
2022/07/07 01:04:24;;;;;;;2.22;1.40;;;23.60;99.90;;;;;;4145496;28;20222;-75
2022/07/07 01:06:27;;;;;;;2.30;1.38;;;23.60;99.90;;;;;;4148271;28;20221;-75
2022/07/07 01:08:30;;;;;;;1.20;1.10;;;23.50;99.90;;;;;;4152814;28;20213;-75
2022/07/07 01:10:33;;;;;;;1.63;1.30;;;23.60;99.90;;;;;;4146368;28;20221;-75
2022/07/07 01:12:37;;;;;;;1.90;1.40;;;23.60;99.90;;;;;;4145836;28;20221;-75
2022/07/07 01:14:41;;;;;;;1.98;1.25;;;23.50;99.90;;;;;;4146967;28;20217;-75
2022/07/07 01:16:44;;;;;;;1.63;1.08;;;23.50;99.90;;;;;;4145174;28;20229;-75
2022/07/07 01:18:46;;;;;;;1.60;1.48;;;23.50;99.90;;;;;;4130560;28;20218;-74
2022/07/07 01:20:48;;;;;;;3.20;1.23;;;23.50;99.90;;;;;;4130114;28;20214;-75
2022/07/07 01:22:53;;;;;;;1.80;1.13;;;23.50;99.90;;;;;;4130279;28;20265;-75
2022/07/07 01:24:55;;;;;;;2.67;1.60;;;23.50;99.90;;;;;;4125360;28;20279;-75
2022/07/07 01:27:08;;;;;;;1.40;1.20;;;23.50;99.90;;;;;;4134072;28;20669;-74
2022/07/07 01:29:11;;;;;;;1.77;1.30;;;23.50;99.90;;;;;;4139345;28;20221;-75
2022/07/07 01:31:13;;;;;;;2.65;1.30;;;23.50;99.90;;;;;;4134638;28;20288;-74
2022/07/07 01:33:16;;;;;;;1.77;1.30;;;23.50;99.90;;;;;;4134089;28;20245;-74
2022/07/07 01:35:19;;;;;;;1.85;1.63;;;23.50;99.90;;;;;;4135084;28;20630;-74
2022/07/07 01:37:24;;;;;;;1.80;1.13;;;23.50;99.90;;;;;;4138283;28;20264;-75
2022/07/07 01:39:29;;;;;;;1.27;1.15;;;23.50;99.90;;;;;;4132055;28;20209;-75
2022/07/07 01:41:31;;;;;;;2.28;1.50;;;23.60;99.90;;;;;;4137778;28;20417;-74
2022/07/07 01:43:33;;;;;;;2.67;1.55;;;23.50;99.90;;;;;;4134755;28;20264;-75
2022/07/07 01:45:36;;;;;;;2.33;1.40;;;23.50;99.90;;;;;;4129300;28;20214;-74
2022/07/07 01:47:38;;;;;;;2.95;1.42;;;23.50;99.90;;;;;;4134441;28;20271;-75
2022/07/07 01:49:40;;;;;;;1.52;1.25;;;23.50;99.90;;;;;;4137424;28;20213;-74
2022/07/07 01:51:43;;;;;;;1.83;1.42;;;23.50;99.90;;;;;;4133697;28;20237;-75
2022/07/07 01:53:45;;;;;;;2.53;1.48;;;23.50;99.90;;;;;;4137442;28;20218;-75
2022/07/07 01:55:49;;;;;;;1.65;1.40;;;23.50;99.90;;;;;;4135740;28;20221;-74
2022/07/07 01:57:51;;;;;;;1.73;1.13;;;23.50;99.90;;;;;;4136623;28;20270;-74
2022/07/07 01:59:54;;;;;;;1.48;1.13;;;23.50;99.90;;;;;;4132289;28;20244;-75
2022/07/07 02:01:56;;;;;;;1.70;1.40;;;23.50;99.90;;;;;;4132943;28;20214;-75
2022/07/07 02:03:59;;;;;;;1.83;1.30;;;23.50;99.90;;;;;;4132312;28;20662;-75
2022/07/07 02:06:01;;;;;;;3.47;1.60;;;23.50;99.90;;;;;;4135302;28;20658;-75
2022/07/07 02:08:03;;;;;;;1.73;1.38;;;23.50;99.90;;;;;;4131579;28;20268;-75
2022/07/07 02:10:06;;;;;;;1.55;1.23;;;23.50;99.90;;;;;;4136030;28;20268;-74
2022/07/07 02:12:10;;;;;;;2.13;1.52;;;23.50;99.90;;;;;;4133419;28;20637;-74
2022/07/07 02:14:12;;;;;;;1.70;1.50;;;23.50;99.90;;;;;;4128336;28;20253;-74
2022/07/07 02:16:16;;;;;;;1.42;1.30;;;23.50;99.90;;;;;;4129185;28;20342;-75
2022/07/07 02:18:19;;;;;;;1.67;1.20;;;23.50;99.90;;;;;;4135320;28;20272;-74
2022/07/07 02:20:21;;;;;;;1.92;1.48;;;23.40;99.90;;;;;;4134093;28;20265;-74
2022/07/07 02:22:23;;;;;;;2.17;1.30;;;23.50;99.90;;;;;;4131316;28;20268;-75
2022/07/07 02:24:26;;;;;;;1.20;1.10;;;23.50;99.90;;;;;;4135413;28;20269;-75
2022/07/07 02:26:29;;;;;;;1.45;1.35;;;23.50;99.90;;;;;;4135221;28;20213;-74
2022/07/07 02:28:33;;;;;;;2.35;1.25;;;23.50;99.90;;;;;;4138862;28;20425;-74
2022/07/07 02:30:35;;;;;;;1.77;1.50;;;23.50;99.90;;;;;;4133060;28;20222;-74
2022/07/07 02:32:37;;;;;;;1.70;1.30;;;23.50;99.90;;;;;;4135535;28;20238;-74
2022/07/07 02:34:40;;;;;;;2.10;1.17;;;23.50;99.90;;;;;;4135243;28;20217;-75
2022/07/07 02:36:42;;;;;;;1.33;1.23;;;23.50;99.90;;;;;;4130607;28;20222;-75
2022/07/07 02:38:45;;;;;;;1.80;1.58;;;23.40;99.90;;;;;;4130773;28;20596;-75
2022/07/07 02:40:48;;;;;;;1.65;1.25;;;23.40;99.90;;;;;;4131690;28;20229;-76
2022/07/07 02:42:50;;;;;;;1.67;1.30;;;23.40;99.90;;;;;;4138993;28;20633;-74
2022/07/07 02:44:53;;;;;;;1.92;1.08;;;23.40;99.90;;;;;;4132169;28;20268;-74
2022/07/07 02:46:56;;;;;;;1.00;0.90;;;23.40;99.90;;;;;;4137600;28;20307;-75
2022/07/07 02:48:58;;;;;;;1.83;1.30;;;23.40;99.90;;;;;;4134297;28;20260;-74
2022/07/07 02:51:00;;;;;;;2.65;1.60;;;23.40;99.90;;;;;;4136660;28;20226;-74
2022/07/07 02:53:03;;;;;;;1.50;1.10;;;23.50;99.90;;;;;;4135283;28;20237;-75
2022/07/07 02:55:07;;;;;;;1.88;1.50;;;23.40;99.90;;;;;;4122992;28;20268;-75
2022/07/07 02:57:09;;;;;;;1.80;1.30;;;23.40;99.90;;;;;;4132231;28;20268;-74
2022/07/07 02:59:11;;;;;;;1.70;1.45;;;23.40;99.90;;;;;;4131176;28;20221;-75
2022/07/07 03:01:15;;;;;;;1.70;1.52;;;23.40;99.90;;;;;;4134626;28;20214;-74
2022/07/07 03:03:18;;;;;;;1.42;1.25;;;23.40;99.90;;;;;;4137244;28;20214;-75
2022/07/07 03:05:20;;;;;;;1.92;1.50;;;23.40;99.90;;;;;;4133869;28;20374;-75
2022/07/07 03:07:23;;;;;;;2.00;1.20;;;23.40;99.90;;;;;;4129815;28;20273;-74
2022/07/07 03:09:25;;;;;;;1.20;1.08;;;23.40;99.90;;;;;;4133766;28;20268;-75
2022/07/07 03:11:27;;;;;;;2.00;1.23;;;23.40;99.90;;;;;;4131094;28;20215;-75
2022/07/07 03:13:30;;;;;;;2.33;1.33;;;23.40;99.90;;;;;;4127145;28;20214;-75
2022/07/07 03:15:33;;;;;;;1.67;1.40;;;23.40;99.90;;;;;;4122914;28;20686;-75
2022/07/07 03:17:36;;;;;;;1.98;1.23;;;23.40;99.90;;;;;;4135226;28;20237;-75
2022/07/07 03:19:39;;;;;;;1.90;1.50;;;23.40;99.90;;;;;;4136725;28;20214;-75
2022/07/07 03:21:41;;;;;;;1.30;1.20;;;23.40;99.90;;;;;;4140415;28;20252;-75
2022/07/07 03:23:43;;;;;;;1.20;1.05;;;23.40;99.90;;;;;;4135870;28;20225;-74
2022/07/07 03:25:46;;;;;;;1.92;1.42;;;23.40;99.90;;;;;;4133797;28;20269;-75
2022/07/07 03:27:48;;;;;;;1.48;1.25;;;23.40;99.90;;;;;;4136064;28;20272;-75
2022/07/07 03:29:52;;;;;;;2.03;1.20;;;23.40;99.90;;;;;;4136320;28;20216;-74
2022/07/07 03:31:54;;;;;;;1.40;1.23;;;23.40;99.90;;;;;;4136050;28;20291;-75
2022/07/07 03:33:58;;;;;;;1.50;1.30;;;23.40;99.90;;;;;;4130896;28;20218;-75
2022/07/07 03:36:00;;;;;;;1.48;1.02;;;23.40;99.90;;;;;;4134898;28;20597;-75
2022/07/07 03:38:02;;;;;;;1.58;1.30;;;23.40;99.90;;;;;;4135719;28;20280;-75
2022/07/07 03:40:07;;;;;;;2.65;1.25;;;23.40;99.90;;;;;;4133310;28;20331;-74
2022/07/07 03:42:09;;;;;;;2.10;1.30;;;23.40;99.90;;;;;;4141041;28;20218;-75
2022/07/07 03:44:11;;;;;;;1.80;1.27;;;23.40;99.90;;;;;;4132970;28;20268;-74
2022/07/07 03:46:14;;;;;;;1.58;1.30;;;23.40;99.90;;;;;;4136034;28;20628;-75
2022/07/07 03:48:16;;;;;;;2.00;1.10;;;23.40;99.90;;;;;;4132110;28;20221;-75
2022/07/07 03:50:20;;;;;;;1.52;1.40;;;23.30;99.90;;;;;;4139902;28;20221;-74
2022/07/07 03:52:22;;;;;;;1.80;1.27;;;23.40;99.90;;;;;;4134138;28;20294;-75
2022/07/07 03:54:26;;;;;;;1.90;1.33;;;23.30;99.90;;;;;;4136354;28;20267;-75
2022/07/07 03:56:28;;;;;;;1.90;1.40;;;23.30;99.90;;;;;;4133317;28;20217;-75
2022/07/07 03:58:31;;;;;;;1.42;1.17;;;23.40;99.90;;;;;;4136128;28;20214;-75
2022/07/07 04:00:33;;;;;;;1.55;1.40;;;23.30;99.90;;;;;;4132906;28;20220;-75
2022/07/07 04:02:36;;;;;;;2.08;1.30;;;23.30;99.90;;;;;;4143644;28;20259;-75
2022/07/07 04:04:38;;;;;;;1.50;1.30;;;23.30;99.90;;;;;;4135907;28;20732;-75
2022/07/07 04:06:42;;;;;;;3.30;1.70;;;23.30;99.90;;;;;;4133138;28;20275;-75
2022/07/07 04:08:44;;;;;;;1.83;1.40;;;23.30;99.90;;;;;;4138074;28;20299;-74
2022/07/07 04:10:46;;;;;;;2.00;1.50;;;23.30;99.90;;;;;;4136216;28;20260;-74
2022/07/07 04:12:49;;;;;;;1.92;1.30;;;23.30;99.90;;;;;;4129913;28;20256;-74
2022/07/07 04:14:51;;;;;;;2.90;1.50;;;23.30;99.90;;;;;;4132014;28;20226;-75
2022/07/07 04:16:52;;;;;;;4.00;1.73;;;23.30;99.90;;;;;;4144500;28;20240;-75
2022/07/07 04:18:54;;;;;;;2.25;1.40;;;23.30;99.90;;;;;;4151720;28;20270;-75
2022/07/07 04:20:57;;;;;;;2.33;1.33;;;23.30;99.90;;;;;;4154788;28;20648;-75
2022/07/07 04:23:00;;;;;;;1.70;1.15;;;23.30;99.90;;;;;;4149595;28;20217;-75
2022/07/07 04:25:03;;;;;;;1.65;1.25;;;23.30;99.90;;;;;;4148906;28;20209;-75
2022/07/07 04:27:08;;;;;;;1.45;1.35;;;23.30;99.90;;;;;;4150354;28;20719;-74
2022/07/07 04:29:11;;;;;;;1.58;1.20;;;23.30;99.90;;;;;;4146964;28;20216;-74
2022/07/07 04:31:13;;;;;;;1.77;1.30;;;23.30;99.90;;;;;;4145023;28;20225;-75
2022/07/07 04:33:15;;;;;;;1.95;1.33;;;23.30;99.90;;;;;;4144467;28;20233;-74
2022/07/07 04:35:17;;;;;;;1.90;1.30;;;23.30;99.90;;;;;;4149267;28;20216;-75
2022/07/07 04:37:20;;;;;;;1.77;1.20;;;23.30;99.90;;;;;;4149888;28;20611;-75
2022/07/07 04:39:23;;;;;;;1.80;1.30;;;23.30;99.90;;;;;;4145386;28;20217;-75
2022/07/07 04:41:26;;;;;;;1.40;1.10;;;23.30;99.90;;;;;;4151952;28;20606;-74
2022/07/07 04:43:28;;;;;;;1.95;1.20;;;23.30;99.90;;;;;;4148829;28;20583;-75
2022/07/07 04:45:30;;;;;;;1.30;1.20;;;23.30;99.90;;;;;;4146034;28;20221;-75
2022/07/07 04:47:32;;;;;;;2.03;1.38;;;23.30;99.90;;;;;;4147047;28;20270;-74
2022/07/07 04:49:35;;;;;;;1.70;1.20;;;23.30;99.90;;;;;;4146289;28;20328;-75
2022/07/07 04:51:37;;;;;;;2.08;1.38;;;23.30;99.90;;;;;;4143725;28;20229;-75
2022/07/07 04:53:40;;;;;;;1.73;1.23;;;23.30;99.90;;;;;;4149802;28;20241;-75
2022/07/07 04:55:43;;;;;;;1.23;1.13;;;23.30;99.90;;;;;;4155057;28;20278;-74
2022/07/07 04:57:46;;;;;;;1.40;1.17;;;23.20;99.90;;;;;;4148610;28;20252;-75
2022/07/07 04:59:48;;;;;;;2.53;1.30;;;23.30;99.90;;;;;;4146669;28;20275;-75
2022/07/07 05:01:50;;;;;;;1.58;1.20;;;23.30;99.90;;;;;;4150722;28;20283;-75
2022/07/07 05:03:53;;;;;;;2.30;1.35;;;23.30;99.90;;;;;;4155755;28;20213;-74
2022/07/07 05:05:55;;;;;;;1.48;1.15;;;23.20;99.90;;;;;;4152785;28;20282;-75
2022/07/07 05:07:58;;;;;;;1.52;1.20;;;23.30;99.90;;;;;;4148926;28;20220;-75
2022/07/07 05:10:00;;;;;;;2.20;1.40;;;23.20;99.90;;;;;;4153061;28;20217;-75
2022/07/07 05:12:05;;;;;;;1.80;1.33;;;23.30;99.90;;;;;;4153483;28;20263;-75
2022/07/07 05:14:07;;;;;;;1.48;1.10;;;23.30;99.90;;;;;;4151696;28;20241;-75
2022/07/07 05:16:10;;;;;;;2.40;1.25;;;23.30;99.90;;;;;;4153711;28;20225;-75
2022/07/07 05:18:12;;;;;;;1.23;1.10;;;23.30;99.90;;;;;;4134880;28;20260;-75
2022/07/07 05:20:14;;;;;;;1.30;1.10;;;23.30;99.90;;;;;;4137345;28;20225;-75
2022/07/07 05:22:17;;;;;;;2.35;1.00;;;23.30;99.90;;;;;;4135214;28;20247;-75
2022/07/07 05:24:19;;;;;;;1.63;1.35;;;23.30;99.90;;;;;;4137613;28;20218;-75
2022/07/07 05:26:21;;;;;;;2.25;1.42;;;23.30;99.90;;;;;;4134508;28;20218;-75
2022/07/07 05:28:25;;;;;;;1.67;1.33;;;23.30;99.90;;;;;;4139415;28;20240;-75
2022/07/07 05:30:27;;;;;;;2.08;1.33;;;23.30;99.90;;;;;;4134876;28;20218;-74
2022/07/07 05:32:29;;;;;;;1.95;1.08;;;23.30;99.90;;;;;;4136002;28;20244;-74
2022/07/07 05:34:32;;;;;;;2.03;1.20;;;23.30;99.90;;;;;;4135421;28;20244;-74
2022/07/07 05:36:34;;;;;;;1.45;1.15;;;23.30;99.90;;;;;;4139093;28;20221;-75
2022/07/07 05:38:36;;;;;;;1.08;0.93;;;23.30;99.90;;;;;;4132877;28;20252;-75
2022/07/07 05:40:39;;;;;;;2.22;1.30;;;23.30;99.90;;;;;;4129162;28;20217;-75
2022/07/07 05:42:41;;;;;;;1.90;1.30;;;23.30;99.90;;;;;;4134153;28;20213;-75
2022/07/07 05:44:45;;;;;;;1.55;1.10;;;23.30;99.90;;;;;;4129078;28;20600;-75
2022/07/07 05:46:47;;;;;;;2.60;1.38;;;23.30;99.90;;;;;;4140478;28;20231;-75
2022/07/07 05:48:49;;;;;;;1.85;1.33;;;23.30;99.90;;;;;;4134526;28;20292;-74
2022/07/07 05:50:52;;;;;;;1.90;1.20;;;23.30;99.90;;;;;;4132924;28;20264;-75
2022/07/07 05:52:54;;;;;;;2.25;1.10;;;23.30;99.90;;;;;;4135761;28;20217;-74
2022/07/07 05:54:57;;;;;;;1.60;1.08;;;23.30;99.90;;;;;;4133099;28;20286;-74
2022/07/07 05:56:59;;;;;;;2.40;1.30;;;23.30;99.90;;;;;;4132389;28;20654;-75
2022/07/07 05:59:02;;;;;;;3.58;1.40;;;23.30;99.90;;;;;;4127960;28;20209;-75
2022/07/07 06:01:06;;;;;;;2.13;1.30;;;23.30;99.90;;;;;;4135048;28;20661;-74
2022/07/07 06:03:08;;;;;;;1.30;1.20;;;23.30;99.90;;;;;;4134878;28;20657;-75
2022/07/07 06:05:10;;;;;;;2.13;1.30;;;23.30;99.90;;;;;;4131778;28;20269;-75
2022/07/07 06:07:13;;;;;;;1.95;1.20;;;23.30;99.90;;;;;;4129025;28;20257;-74
2022/07/07 06:09:15;;;;;;;2.33;1.20;;;23.30;99.90;;;;;;4131180;28;20661;-75
2022/07/07 06:11:18;;;;;;;2.65;1.20;;;23.30;99.90;;;;;;4135689;28;20281;-75
2022/07/07 06:13:20;;;;;;;2.53;1.40;;;23.30;99.90;;;;;;4131946;28;20218;-75
2022/07/07 06:15:23;;;;;;;2.05;1.17;;;23.30;99.90;;;;;;4130279;28;20222;-74
2022/07/07 06:17:27;;;;;;;2.75;1.00;;;23.30;99.90;;;;;;4143962;28;20617;-75
2022/07/07 06:19:29;;;;;;;1.50;1.40;;;23.30;99.90;;;;;;4151629;28;20715;-74
2022/07/07 06:21:31;;;;;;;1.52;1.17;;;23.30;99.90;;;;;;4155678;28;20229;-74
2022/07/07 06:23:33;;;;;;;2.00;1.27;;;23.30;99.90;;;;;;4149695;28;20213;-75
2022/07/07 06:25:36;;;;;;;2.05;1.05;;;23.30;99.90;;;;;;4148285;28;20221;-75
2022/07/07 06:27:38;;;;;;;1.00;0.90;;;23.30;99.90;;;;;;4150592;28;20217;-74
2022/07/07 06:29:41;;;;;;;1.50;1.00;;;23.30;99.90;;;;;;4153592;28;20275;-74
2022/07/07 06:31:43;;;;;;;1.45;1.10;;;23.30;99.90;;;;;;4150411;28;20216;-75
2022/07/07 06:33:47;;;;;;;1.23;0.98;;;23.30;99.90;;;;;;4153462;28;20290;-75
2022/07/07 06:35:50;;;;;;;1.65;0.90;;;23.30;99.90;;;;;;4144121;28;20646;-75
2022/07/07 06:37:53;;;;;;;1.27;1.05;;;23.30;99.90;;;;;;4155156;28;20657;-75
2022/07/07 06:39:55;;;;;;;2.60;1.27;;;23.30;99.90;;;;;;4147537;28;20225;-75
2022/07/07 06:41:57;;;;;;;2.75;1.33;;;23.30;99.90;;;;;;4140116;28;20263;-75
2022/07/07 06:44:00;;;;;;;1.10;0.98;;;23.30;99.90;;;;;;4150019;28;20267;-75
2022/07/07 06:46:02;;;;;;;1.65;1.10;;;23.30;99.90;;;;;;4151466;28;20690;-74
2022/07/07 06:48:05;;;;;;;1.95;1.15;;;23.30;99.90;;;;;;4151947;28;20244;-75
2022/07/07 06:50:10;;;;;;;3.22;1.10;;;23.40;99.90;;;;;;4152960;28;20280;-75
2022/07/07 06:52:13;;;;;;;2.80;1.00;;;23.30;99.90;;;;;;4148031;28;20222;-75
2022/07/07 06:54:15;;;;;;;0.98;0.88;;;23.40;99.90;;;;;;4154408;28;20752;-74
2022/07/07 06:56:18;;;;;;;2.25;0.93;;;23.40;99.90;;;;;;4151566;28;20236;-75
2022/07/07 06:58:20;;;;;;;1.42;1.00;;;23.40;99.90;;;;;;4151595;28;20217;-74
2022/07/07 07:00:23;;;;;;;1.45;1.05;;;23.40;99.90;;;;;;4149290;28;20227;-75
2022/07/07 07:02:25;;;;;;;1.23;0.90;;;23.40;99.90;;;;;;4143589;28;20225;-75
2022/07/07 07:04:27;;;;;;;2.30;1.20;;;23.40;99.90;;;;;;4145995;28;20275;-75
2022/07/07 07:06:31;;;;;;;7.95;1.33;;;23.40;99.90;;;;;;4148153;28;20221;-75
2022/07/07 07:08:33;;;;;;;2.95;1.25;;;23.30;99.90;;;;;;4147107;28;20217;-75
2022/07/07 07:10:35;;;;;;;3.17;1.55;;;23.20;99.90;;;;;;4154173;28;20220;-75
2022/07/07 07:12:38;;;;;;;4.45;1.10;;;23.00;99.90;;;;;;4149465;28;20722;-75
2022/07/07 07:14:40;;;;;;;3.60;1.02;;;22.70;99.90;;;;;;4151990;28;20237;-75
2022/07/07 07:16:43;;;;;;;3.83;1.10;;;22.60;99.90;;;;;;4144165;28;20371;-76
2022/07/07 07:18:46;;;;;;;3.88;1.30;;;22.50;99.90;;;;;;4147472;28;20730;-76
2022/07/07 07:20:48;;;;;;;2.47;1.08;;;22.30;99.90;;;;;;4149012;28;20633;-76
2022/07/07 07:22:52;;;;;;;3.80;1.02;;;22.30;99.90;;;;;;4142684;28;20243;-76
2022/07/07 07:24:54;;;;;;;7.47;1.63;;;22.20;99.90;;;;;;4140888;28;20209;-76
2022/07/07 07:26:56;;;;;;;6.28;1.30;;;22.10;99.90;;;;;;4142189;28;20653;-76
2022/07/07 07:28:58;;;;;;;5.10;1.42;;;22.30;99.90;;;;;;4146582;28;21094;-78
2022/07/07 07:31:01;;;;;;;5.45;1.50;;;22.50;99.90;;;;;;4146407;28;20633;-75
2022/07/07 07:33:04;;;;;;;6.38;1.65;;;22.60;99.90;;;;;;4145575;28;20225;-75
2022/07/07 07:35:06;;;;;;;6.45;1.35;;;22.60;99.90;;;;;;4144808;28;20299;-75
2022/07/07 07:37:09;;;;;;;7.75;1.40;;;22.60;99.90;;;;;;4147375;28;20271;-75
2022/07/07 07:39:16;;;;;;;6.05;1.63;;;22.60;99.90;;;;;;4149864;28;20267;-75
2022/07/07 07:41:19;;;;;;;14.60;1.40;;;22.60;99.90;;;;;;4140459;28;20217;-75
2022/07/07 07:43:21;;;;;;;6.07;1.63;;;22.60;99.90;;;;;;4143777;28;20217;-76
2022/07/07 07:45:24;;;;;;;3.15;1.35;;;22.40;99.90;;;;;;4143110;28;20672;-77
2022/07/07 07:47:26;;;;;;;4.47;1.58;;;22.40;99.90;;;;;;4150241;28;20205;-77
2022/07/07 07:49:28;;;;;;;7.97;1.42;;;22.50;99.90;;;;;;4148335;28;20663;-76
2022/07/07 07:51:31;;;;;;;8.65;1.80;;;22.40;99.90;;;;;;4137532;28;20225;-75
2022/07/07 07:53:33;;;;;;;7.22;1.30;;;22.40;99.90;;;;;;4139917;28;20221;-77
2022/07/07 07:55:38;;;;;;;9.00;1.50;;;22.50;99.90;;;;;;4143056;28;20233;-76
2022/07/07 07:57:41;;;;;;;8.23;1.63;;;22.50;99.90;;;;;;4138477;28;20649;-76
2022/07/07 07:59:43;;;;;;;5.30;1.50;;;22.50;99.90;;;;;;4141860;28;20212;-74
2022/07/07 08:01:46;;;;;;;5.43;1.50;;;22.40;99.90;;;;;;4141261;28;20274;-77
2022/07/07 08:03:48;;;;;;;4.45;1.40;;;22.30;99.90;;;;;;4136573;28;20247;-75
2022/07/07 08:05:50;;;;;;;6.40;1.52;;;22.40;99.90;;;;;;4137811;28;21905;-75
2022/07/07 08:07:53;;;;;;;7.28;1.50;;;22.30;99.90;;;;;;4142691;28;20927;-74
2022/07/07 08:09:55;;;;;;;8.75;1.70;;;22.30;99.90;;;;;;4137834;28;20214;-74
2022/07/07 08:11:59;;;;;;;5.50;1.48;;;22.40;99.90;;;;;;4140354;28;20267;-74
2022/07/07 08:14:01;;;;;;;7.50;1.55;;;22.30;99.90;;;;;;4142773;28;20213;-75
2022/07/07 08:16:04;;;;;;;9.93;1.75;;;22.30;99.90;;;;;;4143777;28;20765;-75
2022/07/07 08:18:06;;;;;;;6.50;1.45;;;22.30;99.90;;;;;;4127620;28;20214;-75
2022/07/07 08:20:09;;;;;;;6.32;1.30;;;22.40;99.90;;;;;;4125208;28;20264;-76
2022/07/07 08:22:12;;;;;;;4.80;1.33;;;22.50;99.90;;;;;;4124506;28;20971;-75
2022/07/07 08:24:14;;;;;;;7.50;1.42;;;22.50;99.90;;;;;;4126539;28;20288;-75
2022/07/07 08:26:17;;;;;;;7.00;1.40;;;22.40;99.90;;;;;;4122176;28;20257;-77
2022/07/07 08:28:20;;;;;;;4.07;1.63;;;22.40;99.90;;;;;;4121975;28;20278;-75
2022/07/07 08:30:22;;;;;;;9.73;1.67;;;22.40;99.90;;;;;;4121849;28;20271;-76
2022/07/07 08:32:25;;;;;;;14.93;2.40;;;22.50;99.90;;;;;;4123831;28;20249;-76
2022/07/07 08:34:28;;;;;;;6.85;1.50;;;22.50;99.90;;;;;;4124680;28;20213;-76
2022/07/07 08:36:30;;;;;;;10.93;2.22;;;22.40;99.90;;;;;;4130091;28;20240;-78
2022/07/07 08:38:33;;;;;;;11.48;1.95;;;22.50;99.90;;;;;;4126375;28;20222;-76
2022/07/07 08:40:35;;;;;;;7.88;1.60;;;22.40;99.90;;;;;;4130183;28;20225;-76
2022/07/07 08:42:38;;;;;;;9.10;1.45;;;22.40;99.90;;;;;;4124272;28;20268;-76
2022/07/07 08:44:41;;;;;;;7.15;2.17;;;22.40;99.90;;;;;;4122889;28;20249;-76
2022/07/07 08:46:47;;;;;;;8.32;1.60;;;22.30;99.90;;;;;;4122160;28;20305;-77
2022/07/07 08:48:50;;;;;;;5.63;1.42;;;22.40;99.90;;;;;;4123555;28;20272;-77
2022/07/07 08:50:52;;;;;;;7.60;1.50;;;22.30;99.90;;;;;;4130799;28;20942;-76
2022/07/07 08:52:55;;;;;;;7.95;1.60;;;22.30;99.90;;;;;;4125969;28;20222;-78
2022/07/07 08:54:58;;;;;;;6.60;1.30;;;22.50;99.90;;;;;;4118496;28;20293;-75
2022/07/07 08:57:01;;;;;;;7.03;1.33;;;22.70;99.90;;;;;;4112806;28;20214;-75
2022/07/07 08:59:04;;;;;;;6.32;1.30;;;22.80;99.90;;;;;;4114578;28;20218;-76
2022/07/07 09:01:08;;;;;;;4.28;1.23;;;23.10;99.90;;;;;;4120095;28;20230;-75
2022/07/07 09:03:10;;;;;;;6.72;1.30;;;23.10;99.90;;;;;;4119259;28;20251;-74
2022/07/07 09:05:13;;;;;;;5.53;1.58;;;23.30;99.90;;;;;;4126402;28;20217;-73
2022/07/07 09:07:15;;;;;;;4.07;1.35;;;23.40;99.90;;;;;;4126600;28;20222;-74
2022/07/07 09:09:29;;;;;;;4.80;1.10;;;23.40;99.90;;;;;;4126539;28;20226;-77
2022/07/07 09:11:33;;;;;;;4.47;0.98;;;23.50;99.90;;;;;;4128287;28;20217;-78
2022/07/07 09:13:38;;;;;;;4.35;1.30;;;23.60;99.90;;;;;;4125576;28;20743;-77
2022/07/07 09:15:40;;;;;;;6.78;1.77;;;23.60;99.90;;;;;;4127567;28;20252;-76
2022/07/07 09:17:44;;;;;;;5.47;1.00;;;23.70;99.90;;;;;;4136430;28;20240;-78
2022/07/07 09:19:59;;;;;;;6.78;1.40;;;23.50;99.90;;;;;;4121906;28;20213;-76
2022/07/07 09:22:02;;;;;;;7.35;1.10;;;23.30;99.90;;;;;;4139308;28;20224;-78
2022/07/07 09:24:05;;;;;;;6.00;1.35;;;23.30;99.90;;;;;;4140455;28;20221;-77
2022/07/07 09:26:08;;;;;;;3.83;1.20;;;23.20;99.90;;;;;;4131696;28;20213;-77
2022/07/07 09:28:10;;;;;;;6.60;1.38;;;23.20;99.90;;;;;;4144459;28;20217;-74
2022/07/07 09:30:13;;;;;;;4.07;0.98;;;23.10;99.90;;;;;;4144319;28;20623;-74
2022/07/07 09:32:15;;;;;;;5.10;0.90;;;23.10;99.90;;;;;;4143507;28;20327;-74
2022/07/07 09:34:19;;;;;;;3.22;1.00;;;23.00;99.90;;;;;;4142608;28;20279;-74
2022/07/07 09:38:43;;;;;;;3.53;1.30;;;23.10;99.90;;;;;;4099820;28;20264;-74
2022/07/07 09:40:59;;;;;;;3.13;0.90;;;23.00;99.90;;;;;;4142696;28;20213;-74
2022/07/07 09:43:03;;;;;;;4.10;0.88;;;23.00;99.90;;;;;;4141316;28;20221;-79
2022/07/07 09:45:08;;;;;;;8.48;1.25;;;22.90;99.90;;;;;;4136903;28;20564;-78
2022/07/07 09:47:11;;;;;;;4.70;0.90;;;22.90;99.90;;;;;;4148017;28;20221;-77
2022/07/07 09:49:13;;;;;;;3.45;1.10;;;23.00;99.90;;;;;;4147535;28;20217;-77
2022/07/07 09:51:21;;;;;;;4.30;1.10;;;23.00;99.90;;;;;;4141326;28;20213;-76
2022/07/07 09:53:23;;;;;;;1.85;0.70;;;22.90;99.90;;;;;;4130036;28;20220;-75
2022/07/07 09:55:25;;;;;;;2.78;1.00;;;22.90;99.90;;;;;;4144939;28;20652;-73
2022/07/07 09:57:28;;;;;;;3.05;1.08;;;22.90;99.90;;;;;;4134006;28;20267;-75
2022/07/07 09:59:31;;;;;;;5.15;0.90;;;22.80;99.90;;;;;;4147313;28;20221;-77
2022/07/07 10:01:35;;;;;;;6.25;1.00;;;22.70;99.90;;;;;;4136763;28;20879;-74
2022/07/07 10:03:37;;;;;;;6.40;1.40;;;22.70;99.90;;;;;;4142456;28;20660;-79
2022/07/07 10:05:40;;;;;;;6.82;1.05;;;22.70;99.90;;;;;;4143454;28;20259;-78
2022/07/07 10:07:47;;;;;;;3.33;1.15;;;22.70;99.90;;;;;;4146217;28;20239;-75
2022/07/07 10:09:53;;;;;;;4.53;1.17;;;22.70;99.90;;;;;;4148967;28;20221;-75
2022/07/07 10:11:58;;;;;;;2.38;1.10;;;22.70;99.90;;;;;;4143371;28;20213;-76
2022/07/07 10:14:09;;;;;;;3.22;1.10;;;22.60;99.90;;;;;;4144279;28;20213;-75
2022/07/07 10:16:11;;;;;;;4.43;0.88;;;22.60;99.90;;;;;;4141783;28;20283;-74
2022/07/07 10:18:14;;;;;;;9.95;1.10;;;22.60;99.90;;;;;;4124620;28;20222;-75
2022/07/07 10:20:16;;;;;;;4.57;1.58;;;22.80;99.90;;;;;;4128929;28;20276;-75
2022/07/07 10:22:21;;;;;;;4.60;1.25;;;22.80;99.90;;;;;;4126420;28;20236;-77
2022/07/07 10:24:28;;;;;;;3.88;1.38;;;22.80;99.90;;;;;;4128017;28;20213;-75
2022/07/07 10:26:38;;;;;;;4.28;1.25;;;22.80;99.90;;;;;;4125165;28;20272;-77
2022/07/07 10:28:54;;;;;;;4.82;1.10;;;22.80;99.90;;;;;;4125515;28;20721;-77
2022/07/07 10:30:56;;;;;;;4.30;1.33;;;22.80;99.90;;;;;;4121298;28;20728;-77
2022/07/07 10:32:59;;;;;;;4.22;0.98;;;22.80;99.90;;;;;;4126736;28;20276;-75
2022/07/07 10:35:07;;;;;;;3.17;0.88;;;22.80;99.90;;;;;;4125555;28;20560;-75
2022/07/07 10:37:12;;;;;;;5.88;1.05;;;22.80;99.90;;;;;;4126821;28;20289;-74
2022/07/07 10:39:15;;;;;;;3.83;0.98;;;22.70;99.90;;;;;;4132090;28;20210;-75
2022/07/07 10:41:24;;;;;;;3.72;1.00;;;22.80;99.90;;;;;;4130736;28;21015;-75